sensor_id;sensor_type;location;lat;lon;timestamp;temperature;humidity
15241;DHT22;7723;52.170;9.978;2024-03-17T00:00:38;3.70;99.90
15241;DHT22;7723;52.170;9.978;2024-03-17T00:03:05;3.70;99.90
15241;DHT22;7723;52.170;9.978;2024-03-17T00:05:34;3.60;99.90
15241;DHT22;7723;52.170;9.978;2024-03-17T00:08:01;3.60;99.90
15241;DHT22;7723;52.170;9.978;2024-03-17T00:10:30;3.50;99.90
15241;DHT22;7723;52.170;9.978;2024-03-17T00:12:56;3.50;99.90
15241;DHT22;7723;52.170;9.978;2024-03-17T00:15:24;3.50;99.90
15241;DHT22;7723;52.170;9.978;2024-03-17T00:17:50;3.50;99.90
15241;DHT22;7723;52.170;9.978;2024-03-17T00:20:17;3.40;99.90
15241;DHT22;7723;52.170;9.978;2024-03-17T00:22:46;3.50;99.90
15241;DHT22;7723;52.170;9.978;2024-03-17T00:25:15;3.50;99.90
15241;DHT22;7723;52.170;9.978;2024-03-17T00:27:41;3.50;99.90
15241;DHT22;7723;52.170;9.978;2024-03-17T00:30:11;3.50;99.90
15241;DHT22;7723;52.170;9.978;2024-03-17T00:32:38;3.50;99.90
15241;DHT22;7723;52.170;9.978;2024-03-17T00:35:07;3.40;99.90
15241;DHT22;7723;52.170;9.978;2024-03-17T00:37:35;3.40;99.90
15241;DHT22;7723;52.170;9.978;2024-03-17T00:40:04;3.40;99.90
15241;DHT22;7723;52.170;9.978;2024-03-17T00:42:33;3.40;99.90
15241;DHT22;7723;52.170;9.978;2024-03-17T00:45:00;3.40;99.90
15241;DHT22;7723;52.170;9.978;2024-03-17T00:47:27;3.60;99.90
15241;DHT22;7723;52.170;9.978;2024-03-17T00:49:55;3.50;99.90
15241;DHT22;7723;52.170;9.978;2024-03-17T00:52:21;3.60;99.90
15241;DHT22;7723;52.170;9.978;2024-03-17T00:54:48;3.50;99.90
15241;DHT22;7723;52.170;9.978;2024-03-17T00:57:14;3.50;99.90
15241;DHT22;7723;52.170;9.978;2024-03-17T00:59:42;3.50;99.90
15241;DHT22;7723;52.170;9.978;2024-03-17T01:02:10;3.40;99.90
15241;DHT22;7723;52.170;9.978;2024-03-17T01:04:39;3.40;99.90
15241;DHT22;7723;52.170;9.978;2024-03-17T01:07:05;3.40;99.90
15241;DHT22;7723;52.170;9.978;2024-03-17T01:09:32;3.30;99.90
15241;DHT22;7723;52.170;9.978;2024-03-17T01:11:58;3.30;99.90
15241;DHT22;7723;52.170;9.978;2024-03-17T01:14:25;3.20;99.90
15241;DHT22;7723;52.170;9.978;2024-03-17T01:16:53;3.20;99.90
15241;DHT22;7723;52.170;9.978;2024-03-17T01:19:20;3.20;99.90
15241;DHT22;7723;52.170;9.978;2024-03-17T01:21:46;3.20;99.90
15241;DHT22;7723;52.170;9.978;2024-03-17T01:24:13;3.20;99.90
15241;DHT22;7723;52.170;9.978;2024-03-17T01:26:39;3.20;99.90
15241;DHT22;7723;52.170;9.978;2024-03-17T01:29:06;3.20;99.90
15241;DHT22;7723;52.170;9.978;2024-03-17T01:31:34;3.30;99.90
15241;DHT22;7723;52.170;9.978;2024-03-17T01:34:03;3.20;99.90
15241;DHT22;7723;52.170;9.978;2024-03-17T01:36:29;3.20;99.90
15241;DHT22;7723;52.170;9.978;2024-03-17T01:38:56;3.20;99.90
15241;DHT22;7723;52.170;9.978;2024-03-17T01:41:22;3.10;99.90
15241;DHT22;7723;52.170;9.978;2024-03-17T01:43:49;3.10;99.90
15241;DHT22;7723;52.170;9.978;2024-03-17T01:46:16;3.20;99.90
15241;DHT22;7723;52.170;9.978;2024-03-17T01:48:44;3.20;99.90
15241;DHT22;7723;52.170;9.978;2024-03-17T01:51:14;3.20;99.90
15241;DHT22;7723;52.170;9.978;2024-03-17T01:53:42;3.30;99.90
15241;DHT22;7723;52.170;9.978;2024-03-17T01:56:10;3.30;99.90
15241;DHT22;7723;52.170;9.978;2024-03-17T01:58:38;3.30;99.90
15241;DHT22;7723;52.170;9.978;2024-03-17T02:01:04;3.20;99.90
15241;DHT22;7723;52.170;9.978;2024-03-17T02:03:32;3.10;99.90
15241;DHT22;7723;52.170;9.978;2024-03-17T02:05:58;3.10;99.90
15241;DHT22;7723;52.170;9.978;2024-03-17T02:08:27;3.10;99.90
15241;DHT22;7723;52.170;9.978;2024-03-17T02:10:54;3.10;99.90
15241;DHT22;7723;52.170;9.978;2024-03-17T02:13:21;3.00;99.90
15241;DHT22;7723;52.170;9.978;2024-03-17T02:15:48;2.90;99.90
15241;DHT22;7723;52.170;9.978;2024-03-17T02:18:15;2.80;99.90
15241;DHT22;7723;52.170;9.978;2024-03-17T02:20:41;2.80;99.90
15241;DHT22;7723;52.170;9.978;2024-03-17T02:23:26;2.80;99.90
15241;DHT22;7723;52.170;9.978;2024-03-17T02:25:52;2.70;99.90
15241;DHT22;7723;52.170;9.978;2024-03-17T02:28:20;2.70;99.90
15241;DHT22;7723;52.170;9.978;2024-03-17T02:30:46;2.70;99.90
15241;DHT22;7723;52.170;9.978;2024-03-17T02:33:13;2.70;99.90
15241;DHT22;7723;52.170;9.978;2024-03-17T02:35:39;2.70;99.90
15241;DHT22;7723;52.170;9.978;2024-03-17T02:38:06;2.60;99.90
15241;DHT22;7723;52.170;9.978;2024-03-17T02:40:35;2.60;99.90
15241;DHT22;7723;52.170;9.978;2024-03-17T02:43:02;2.60;99.90
15241;DHT22;7723;52.170;9.978;2024-03-17T02:45:29;2.60;99.90
15241;DHT22;7723;52.170;9.978;2024-03-17T02:47:56;2.60;99.90
15241;DHT22;7723;52.170;9.978;2024-03-17T02:50:23;2.50;99.90
15241;DHT22;7723;52.170;9.978;2024-03-17T02:52:50;2.50;99.90
15241;DHT22;7723;52.170;9.978;2024-03-17T02:55:17;2.40;99.90
15241;DHT22;7723;52.170;9.978;2024-03-17T02:57:46;2.30;99.90
15241;DHT22;7723;52.170;9.978;2024-03-17T03:00:14;2.30;99.90
15241;DHT22;7723;52.170;9.978;2024-03-17T03:02:42;2.20;99.90
15241;DHT22;7723;52.170;9.978;2024-03-17T03:05:10;2.20;99.90
15241;DHT22;7723;52.170;9.978;2024-03-17T03:07:37;2.20;99.90
15241;DHT22;7723;52.170;9.978;2024-03-17T03:10:04;2.30;99.90
15241;DHT22;7723;52.170;9.978;2024-03-17T03:12:32;2.30;99.90
15241;DHT22;7723;52.170;9.978;2024-03-17T03:15:00;2.20;99.90
15241;DHT22;7723;52.170;9.978;2024-03-17T03:17:28;2.20;99.90
15241;DHT22;7723;52.170;9.978;2024-03-17T03:19:55;2.20;99.90
15241;DHT22;7723;52.170;9.978;2024-03-17T03:22:22;2.30;99.90
15241;DHT22;7723;52.170;9.978;2024-03-17T03:24:52;2.30;99.90
15241;DHT22;7723;52.170;9.978;2024-03-17T03:27:19;2.20;99.90
15241;DHT22;7723;52.170;9.978;2024-03-17T03:29:46;2.20;99.90
15241;DHT22;7723;52.170;9.978;2024-03-17T03:32:15;2.20;99.90
15241;DHT22;7723;52.170;9.978;2024-03-17T03:34:43;2.10;99.90
15241;DHT22;7723;52.170;9.978;2024-03-17T03:37:10;2.10;99.90
15241;DHT22;7723;52.170;9.978;2024-03-17T03:39:37;2.10;99.90
15241;DHT22;7723;52.170;9.978;2024-03-17T03:42:04;2.10;99.90
15241;DHT22;7723;52.170;9.978;2024-03-17T03:44:32;2.10;99.90
15241;DHT22;7723;52.170;9.978;2024-03-17T03:46:59;2.10;99.90
15241;DHT22;7723;52.170;9.978;2024-03-17T03:49:28;2.20;99.90
15241;DHT22;7723;52.170;9.978;2024-03-17T03:51:56;2.20;99.90
15241;DHT22;7723;52.170;9.978;2024-03-17T03:54:23;2.30;99.90
15241;DHT22;7723;52.170;9.978;2024-03-17T03:56:50;2.40;99.90
15241;DHT22;7723;52.170;9.978;2024-03-17T03:59:17;2.50;99.90
15241;DHT22;7723;52.170;9.978;2024-03-17T04:01:44;2.50;99.90
15241;DHT22;7723;52.170;9.978;2024-03-17T04:04:11;2.60;99.90
15241;DHT22;7723;52.170;9.978;2024-03-17T04:06:39;2.60;99.90
15241;DHT22;7723;52.170;9.978;2024-03-17T04:09:07;2.80;99.90
15241;DHT22;7723;52.170;9.978;2024-03-17T04:11:34;2.90;99.90
15241;DHT22;7723;52.170;9.978;2024-03-17T04:14:02;2.90;99.90
15241;DHT22;7723;52.170;9.978;2024-03-17T04:16:30;2.90;99.90
15241;DHT22;7723;52.170;9.978;2024-03-17T04:18:58;3.00;99.90
15241;DHT22;7723;52.170;9.978;2024-03-17T04:21:25;3.10;99.90
15241;DHT22;7723;52.170;9.978;2024-03-17T04:23:53;3.10;99.90
15241;DHT22;7723;52.170;9.978;2024-03-17T04:26:20;3.00;99.90
15241;DHT22;7723;52.170;9.978;2024-03-17T04:28:47;3.10;99.90
15241;DHT22;7723;52.170;9.978;2024-03-17T04:31:14;3.00;99.90
15241;DHT22;7723;52.170;9.978;2024-03-17T04:33:41;3.00;99.90
15241;DHT22;7723;52.170;9.978;2024-03-17T04:36:09;3.00;99.90
15241;DHT22;7723;52.170;9.978;2024-03-17T04:38:36;3.00;99.90
15241;DHT22;7723;52.170;9.978;2024-03-17T04:41:04;3.00;99.90
15241;DHT22;7723;52.170;9.978;2024-03-17T04:43:33;3.00;99.90
15241;DHT22;7723;52.170;9.978;2024-03-17T04:46:02;3.00;99.90
15241;DHT22;7723;52.170;9.978;2024-03-17T04:48:30;3.00;99.90
15241;DHT22;7723;52.170;9.978;2024-03-17T04:50:58;3.10;99.90
15241;DHT22;7723;52.170;9.978;2024-03-17T04:53:26;3.00;99.90
15241;DHT22;7723;52.170;9.978;2024-03-17T04:56:05;3.10;99.90
15241;DHT22;7723;52.170;9.978;2024-03-17T04:58:33;3.10;99.90
15241;DHT22;7723;52.170;9.978;2024-03-17T05:01:06;3.10;99.90
15241;DHT22;7723;52.170;9.978;2024-03-17T05:03:33;3.10;99.90
15241;DHT22;7723;52.170;9.978;2024-03-17T05:06:01;3.10;99.90
15241;DHT22;7723;52.170;9.978;2024-03-17T05:08:28;3.20;99.90
15241;DHT22;7723;52.170;9.978;2024-03-17T05:10:58;3.20;99.90
15241;DHT22;7723;52.170;9.978;2024-03-17T05:13:28;3.20;99.90
15241;DHT22;7723;52.170;9.978;2024-03-17T05:15:55;3.10;99.90
15241;DHT22;7723;52.170;9.978;2024-03-17T05:18:22;3.10;99.90
15241;DHT22;7723;52.170;9.978;2024-03-17T05:20:58;3.10;99.90
15241;DHT22;7723;52.170;9.978;2024-03-17T05:23:27;3.20;99.90
15241;DHT22;7723;52.170;9.978;2024-03-17T05:25:55;3.20;99.90
15241;DHT22;7723;52.170;9.978;2024-03-17T05:28:22;3.30;99.90
15241;DHT22;7723;52.170;9.978;2024-03-17T05:30:51;3.40;99.90
15241;DHT22;7723;52.170;9.978;2024-03-17T05:33:18;3.30;99.90
15241;DHT22;7723;52.170;9.978;2024-03-17T05:35:50;3.40;99.90
15241;DHT22;7723;52.170;9.978;2024-03-17T05:38:18;3.50;99.90
15241;DHT22;7723;52.170;9.978;2024-03-17T05:40:53;3.50;99.90
15241;DHT22;7723;52.170;9.978;2024-03-17T05:43:20;3.40;99.90
15241;DHT22;7723;52.170;9.978;2024-03-17T05:45:48;3.50;99.90
15241;DHT22;7723;52.170;9.978;2024-03-17T05:48:16;3.60;99.90
15241;DHT22;7723;52.170;9.978;2024-03-17T05:50:43;3.70;99.90
15241;DHT22;7723;52.170;9.978;2024-03-17T05:53:10;3.60;99.90
15241;DHT22;7723;52.170;9.978;2024-03-17T05:55:38;3.60;99.90
15241;DHT22;7723;52.170;9.978;2024-03-17T05:58:06;3.60;99.90
15241;DHT22;7723;52.170;9.978;2024-03-17T06:00:35;3.60;99.90
15241;DHT22;7723;52.170;9.978;2024-03-17T06:03:03;3.70;99.90
15241;DHT22;7723;52.170;9.978;2024-03-17T06:05:33;3.80;99.90
15241;DHT22;7723;52.170;9.978;2024-03-17T06:08:01;3.70;99.90
15241;DHT22;7723;52.170;9.978;2024-03-17T06:10:30;3.80;99.90
15241;DHT22;7723;52.170;9.978;2024-03-17T06:12:58;3.80;99.90
15241;DHT22;7723;52.170;9.978;2024-03-17T06:15:25;3.90;99.90
15241;DHT22;7723;52.170;9.978;2024-03-17T06:17:53;4.00;99.90
15241;DHT22;7723;52.170;9.978;2024-03-17T06:20:21;4.00;99.90
15241;DHT22;7723;52.170;9.978;2024-03-17T06:22:50;4.10;99.90
15241;DHT22;7723;52.170;9.978;2024-03-17T06:25:17;4.20;99.90
15241;DHT22;7723;52.170;9.978;2024-03-17T06:27:44;4.30;99.90
15241;DHT22;7723;52.170;9.978;2024-03-17T06:30:13;4.30;99.90
15241;DHT22;7723;52.170;9.978;2024-03-17T06:32:40;4.30;99.90
15241;DHT22;7723;52.170;9.978;2024-03-17T06:35:08;4.40;99.90
15241;DHT22;7723;52.170;9.978;2024-03-17T06:37:36;4.50;99.90
15241;DHT22;7723;52.170;9.978;2024-03-17T06:40:06;4.60;99.90
15241;DHT22;7723;52.170;9.978;2024-03-17T06:42:37;4.70;99.90
15241;DHT22;7723;52.170;9.978;2024-03-17T06:45:05;4.80;99.90
15241;DHT22;7723;52.170;9.978;2024-03-17T06:47:33;4.80;99.90
15241;DHT22;7723;52.170;9.978;2024-03-17T06:50:01;4.80;99.90
15241;DHT22;7723;52.170;9.978;2024-03-17T06:52:29;4.80;99.90
15241;DHT22;7723;52.170;9.978;2024-03-17T06:54:56;4.90;99.90
15241;DHT22;7723;52.170;9.978;2024-03-17T06:57:26;4.80;99.90
15241;DHT22;7723;52.170;9.978;2024-03-17T06:59:53;5.00;99.90
15241;DHT22;7723;52.170;9.978;2024-03-17T07:02:20;5.20;99.90
15241;DHT22;7723;52.170;9.978;2024-03-17T07:04:47;5.40;99.90
15241;DHT22;7723;52.170;9.978;2024-03-17T07:07:14;5.60;99.90
15241;DHT22;7723;52.170;9.978;2024-03-17T07:09:41;5.80;99.90
15241;DHT22;7723;52.170;9.978;2024-03-17T07:12:09;5.70;99.90
15241;DHT22;7723;52.170;9.978;2024-03-17T07:14:38;5.70;99.90
15241;DHT22;7723;52.170;9.978;2024-03-17T07:17:05;6.00;99.90
15241;DHT22;7723;52.170;9.978;2024-03-17T07:19:32;6.10;99.90
15241;DHT22;7723;52.170;9.978;2024-03-17T07:22:01;6.20;99.90
15241;DHT22;7723;52.170;9.978;2024-03-17T07:24:29;6.50;99.90
15241;DHT22;7723;52.170;9.978;2024-03-17T07:26:56;6.60;99.90
15241;DHT22;7723;52.170;9.978;2024-03-17T07:29:23;6.90;99.90
15241;DHT22;7723;52.170;9.978;2024-03-17T07:31:52;6.90;99.90
15241;DHT22;7723;52.170;9.978;2024-03-17T07:34:19;6.90;99.90
15241;DHT22;7723;52.170;9.978;2024-03-17T07:36:46;7.10;99.90
15241;DHT22;7723;52.170;9.978;2024-03-17T07:39:13;7.30;99.90
15241;DHT22;7723;52.170;9.978;2024-03-17T07:41:40;7.70;99.90
15241;DHT22;7723;52.170;9.978;2024-03-17T07:44:07;7.70;99.90
15241;DHT22;7723;52.170;9.978;2024-03-17T07:46:34;8.20;99.90
15241;DHT22;7723;52.170;9.978;2024-03-17T07:49:03;8.40;99.90
15241;DHT22;7723;52.170;9.978;2024-03-17T07:51:30;8.60;99.90
15241;DHT22;7723;52.170;9.978;2024-03-17T07:54:00;8.70;99.90
15241;DHT22;7723;52.170;9.978;2024-03-17T07:56:27;8.90;99.90
15241;DHT22;7723;52.170;9.978;2024-03-17T07:58:54;9.40;99.90
15241;DHT22;7723;52.170;9.978;2024-03-17T08:01:21;9.80;99.90
15241;DHT22;7723;52.170;9.978;2024-03-17T08:03:48;10.30;99.90
15241;DHT22;7723;52.170;9.978;2024-03-17T08:06:22;10.90;99.90
15241;DHT22;7723;52.170;9.978;2024-03-17T08:08:49;11.00;99.90
15241;DHT22;7723;52.170;9.978;2024-03-17T08:11:15;12.10;99.90
15241;DHT22;7723;52.170;9.978;2024-03-17T08:13:43;12.00;99.90
15241;DHT22;7723;52.170;9.978;2024-03-17T08:16:09;12.50;99.90
15241;DHT22;7723;52.170;9.978;2024-03-17T08:18:36;13.00;99.90
15241;DHT22;7723;52.170;9.978;2024-03-17T08:21:04;12.40;1.00
15241;DHT22;7723;52.170;9.978;2024-03-17T08:23:33;12.90;1.00
15241;DHT22;7723;52.170;9.978;2024-03-17T08:26:04;13.00;1.00
15241;DHT22;7723;52.170;9.978;2024-03-17T08:28:32;12.50;1.00
15241;DHT22;7723;52.170;9.978;2024-03-17T08:31:00;11.80;1.00
15241;DHT22;7723;52.170;9.978;2024-03-17T08:33:28;12.50;1.00
15241;DHT22;7723;52.170;9.978;2024-03-17T08:35:57;13.10;1.00
15241;DHT22;7723;52.170;9.978;2024-03-17T08:38:25;12.80;1.00
15241;DHT22;7723;52.170;9.978;2024-03-17T08:40:55;13.30;1.00
15241;DHT22;7723;52.170;9.978;2024-03-17T08:43:23;11.60;99.90
15241;DHT22;7723;52.170;9.978;2024-03-17T08:45:56;11.10;99.90
15241;DHT22;7723;52.170;9.978;2024-03-17T08:48:25;11.90;99.90
15241;DHT22;7723;52.170;9.978;2024-03-17T08:50:53;12.40;99.90
15241;DHT22;7723;52.170;9.978;2024-03-17T08:53:20;12.80;99.90
15241;DHT22;7723;52.170;9.978;2024-03-17T08:55:48;13.30;99.90
15241;DHT22;7723;52.170;9.978;2024-03-17T08:58:16;12.50;99.90
15241;DHT22;7723;52.170;9.978;2024-03-17T09:00:44;11.40;99.90
15241;DHT22;7723;52.170;9.978;2024-03-17T09:03:11;11.50;99.90
15241;DHT22;7723;52.170;9.978;2024-03-17T09:05:39;12.40;99.90
15241;DHT22;7723;52.170;9.978;2024-03-17T09:08:07;10.90;99.90
15241;DHT22;7723;52.170;9.978;2024-03-17T09:10:39;11.40;99.90
15241;DHT22;7723;52.170;9.978;2024-03-17T09:13:06;12.50;99.90
15241;DHT22;7723;52.170;9.978;2024-03-17T09:15:34;12.50;99.90
15241;DHT22;7723;52.170;9.978;2024-03-17T09:18:02;13.20;99.90
15241;DHT22;7723;52.170;9.978;2024-03-17T09:20:29;13.00;97.60
15241;DHT22;7723;52.170;9.978;2024-03-17T09:22:57;12.00;99.90
15241;DHT22;7723;52.170;9.978;2024-03-17T09:25:24;11.70;99.90
15241;DHT22;7723;52.170;9.978;2024-03-17T09:27:51;11.10;99.90
15241;DHT22;7723;52.170;9.978;2024-03-17T09:30:18;12.20;99.90
15241;DHT22;7723;52.170;9.978;2024-03-17T09:32:47;12.70;99.90
15241;DHT22;7723;52.170;9.978;2024-03-17T09:35:14;12.40;99.90
15241;DHT22;7723;52.170;9.978;2024-03-17T09:37:41;11.90;99.90
15241;DHT22;7723;52.170;9.978;2024-03-17T09:40:14;12.50;99.90
15241;DHT22;7723;52.170;9.978;2024-03-17T09:42:41;12.50;99.90
15241;DHT22;7723;52.170;9.978;2024-03-17T09:45:10;13.00;98.20
15241;DHT22;7723;52.170;9.978;2024-03-17T09:47:37;13.40;77.30
15241;DHT22;7723;52.170;9.978;2024-03-17T09:50:13;13.70;24.70
15241;DHT22;7723;52.170;9.978;2024-03-17T09:52:42;13.20;60.00
15241;DHT22;7723;52.170;9.978;2024-03-17T09:55:15;13.00;61.70
15241;DHT22;7723;52.170;9.978;2024-03-17T09:57:43;13.50;45.90
15241;DHT22;7723;52.170;9.978;2024-03-17T10:00:14;13.90;1.00
15241;DHT22;7723;52.170;9.978;2024-03-17T10:02:42;14.00;1.00
15241;DHT22;7723;52.170;9.978;2024-03-17T10:05:22;13.70;1.00
15241;DHT22;7723;52.170;9.978;2024-03-17T10:07:50;13.00;12.00
15241;DHT22;7723;52.170;9.978;2024-03-17T10:10:18;13.20;29.50
15241;DHT22;7723;52.170;9.978;2024-03-17T10:12:49;13.70;1.00
15241;DHT22;7723;52.170;9.978;2024-03-17T10:15:16;13.70;1.00
15241;DHT22;7723;52.170;9.978;2024-03-17T10:17:44;13.20;1.00
15241;DHT22;7723;52.170;9.978;2024-03-17T10:20:15;13.40;1.00
15241;DHT22;7723;52.170;9.978;2024-03-17T10:23:01;13.30;1.00
15241;DHT22;7723;52.170;9.978;2024-03-17T10:25:30;12.70;1.00
15241;DHT22;7723;52.170;9.978;2024-03-17T10:27:57;12.00;64.30
15241;DHT22;7723;52.170;9.978;2024-03-17T10:30:25;11.80;84.90
15241;DHT22;7723;52.170;9.978;2024-03-17T10:32:55;11.70;99.90
15241;DHT22;7723;52.170;9.978;2024-03-17T10:35:27;11.30;91.90
15241;DHT22;7723;52.170;9.978;2024-03-17T10:37:55;11.20;99.90
15241;DHT22;7723;52.170;9.978;2024-03-17T10:40:25;11.10;99.90
15241;DHT22;7723;52.170;9.978;2024-03-17T10:42:53;11.20;99.90
15241;DHT22;7723;52.170;9.978;2024-03-17T10:45:20;11.50;99.90
15241;DHT22;7723;52.170;9.978;2024-03-17T10:47:48;11.50;99.90
15241;DHT22;7723;52.170;9.978;2024-03-17T10:50:18;11.70;99.20
15241;DHT22;7723;52.170;9.978;2024-03-17T10:52:48;11.70;99.90
15241;DHT22;7723;52.170;9.978;2024-03-17T10:55:21;11.50;99.90
15241;DHT22;7723;52.170;9.978;2024-03-17T10:57:51;11.50;99.90
15241;DHT22;7723;52.170;9.978;2024-03-17T11:00:20;11.30;99.90
15241;DHT22;7723;52.170;9.978;2024-03-17T11:02:49;11.10;99.90
15241;DHT22;7723;52.170;9.978;2024-03-17T11:05:19;11.00;99.90
15241;DHT22;7723;52.170;9.978;2024-03-17T11:07:49;10.80;99.90
15241;DHT22;7723;52.170;9.978;2024-03-17T11:10:19;10.80;99.90
15241;DHT22;7723;52.170;9.978;2024-03-17T11:12:50;11.00;99.90
15241;DHT22;7723;52.170;9.978;2024-03-17T11:15:37;11.00;99.90
15241;DHT22;7723;52.170;9.978;2024-03-17T11:18:28;11.20;99.90
15241;DHT22;7723;52.170;9.978;2024-03-17T11:20:57;11.30;99.90
15241;DHT22;7723;52.170;9.978;2024-03-17T11:23:27;11.60;99.90
15241;DHT22;7723;52.170;9.978;2024-03-17T11:25:55;11.60;99.90
15241;DHT22;7723;52.170;9.978;2024-03-17T11:28:50;11.20;99.90
15241;DHT22;7723;52.170;9.978;2024-03-17T11:31:39;10.90;99.90
15241;DHT22;7723;52.170;9.978;2024-03-17T11:34:35;11.30;99.90
15241;DHT22;7723;52.170;9.978;2024-03-17T11:37:05;11.70;99.90
15241;DHT22;7723;52.170;9.978;2024-03-17T11:39:47;11.40;99.90
15241;DHT22;7723;52.170;9.978;2024-03-17T11:42:17;11.50;99.90
15241;DHT22;7723;52.170;9.978;2024-03-17T11:44:56;11.30;99.90
15241;DHT22;7723;52.170;9.978;2024-03-17T11:47:23;11.20;99.90
15241;DHT22;7723;52.170;9.978;2024-03-17T11:50:02;10.90;99.90
15241;DHT22;7723;52.170;9.978;2024-03-17T11:52:29;11.00;99.90
15241;DHT22;7723;52.170;9.978;2024-03-17T11:54:56;11.20;99.90
15241;DHT22;7723;52.170;9.978;2024-03-17T11:57:23;11.30;99.90
15241;DHT22;7723;52.170;9.978;2024-03-17T11:59:52;11.30;99.90
15241;DHT22;7723;52.170;9.978;2024-03-17T12:02:22;11.20;99.90
15241;DHT22;7723;52.170;9.978;2024-03-17T12:04:51;11.10;99.90
15241;DHT22;7723;52.170;9.978;2024-03-17T12:07:18;10.80;99.90
15241;DHT22;7723;52.170;9.978;2024-03-17T12:09:46;10.80;99.90
15241;DHT22;7723;52.170;9.978;2024-03-17T12:12:17;11.00;99.90
15241;DHT22;7723;52.170;9.978;2024-03-17T12:14:45;11.10;99.90
15241;DHT22;7723;52.170;9.978;2024-03-17T12:17:12;10.90;99.90
15241;DHT22;7723;52.170;9.978;2024-03-17T12:19:44;10.80;99.90
15241;DHT22;7723;52.170;9.978;2024-03-17T12:22:16;10.70;99.90
15241;DHT22;7723;52.170;9.978;2024-03-17T12:24:44;10.80;99.90
15241;DHT22;7723;52.170;9.978;2024-03-17T12:27:17;10.80;99.90
15241;DHT22;7723;52.170;9.978;2024-03-17T12:29:45;10.80;99.90
15241;DHT22;7723;52.170;9.978;2024-03-17T12:32:13;10.90;99.90
15241;DHT22;7723;52.170;9.978;2024-03-17T12:34:43;10.80;89.60
15241;DHT22;7723;52.170;9.978;2024-03-17T12:37:16;10.80;9.10
15241;DHT22;7723;52.170;9.978;2024-03-17T12:39:43;10.60;40.30
15241;DHT22;7723;52.170;9.978;2024-03-17T12:42:11;10.70;40.40
15241;DHT22;7723;52.170;9.978;2024-03-17T12:44:40;10.80;20.80
15241;DHT22;7723;52.170;9.978;2024-03-17T12:47:14;11.20;1.00
15241;DHT22;7723;52.170;9.978;2024-03-17T12:49:47;11.30;1.00
15241;DHT22;7723;52.170;9.978;2024-03-17T12:52:20;11.20;1.00
15241;DHT22;7723;52.170;9.978;2024-03-17T12:54:56;11.20;1.00
15241;DHT22;7723;52.170;9.978;2024-03-17T12:57:43;11.50;1.00
15241;DHT22;7723;52.170;9.978;2024-03-17T13:00:28;11.30;1.00
15241;DHT22;7723;52.170;9.978;2024-03-17T13:02:59;11.30;21.00
15241;DHT22;7723;52.170;9.978;2024-03-17T13:05:28;11.20;1.00
15241;DHT22;7723;52.170;9.978;2024-03-17T13:07:55;11.10;33.10
15241;DHT22;7723;52.170;9.978;2024-03-17T13:10:24;11.30;89.60
15241;DHT22;7723;52.170;9.978;2024-03-17T13:12:59;11.50;5.40
15241;DHT22;7723;52.170;9.978;2024-03-17T13:15:27;11.30;1.00
15241;DHT22;7723;52.170;9.978;2024-03-17T13:17:56;11.30;16.50
15241;DHT22;7723;52.170;9.978;2024-03-17T13:20:24;11.50;60.00
15241;DHT22;7723;52.170;9.978;2024-03-17T13:22:53;11.70;44.20
15241;DHT22;7723;52.170;9.978;2024-03-17T13:25:21;11.60;1.00
15241;DHT22;7723;52.170;9.978;2024-03-17T13:27:50;11.80;1.00
15241;DHT22;7723;52.170;9.978;2024-03-17T13:30:18;11.80;1.00
15241;DHT22;7723;52.170;9.978;2024-03-17T13:32:47;11.90;1.00
15241;DHT22;7723;52.170;9.978;2024-03-17T13:35:17;11.70;1.00
15241;DHT22;7723;52.170;9.978;2024-03-17T13:37:45;11.60;1.00
15241;DHT22;7723;52.170;9.978;2024-03-17T13:40:16;11.60;1.00
15241;DHT22;7723;52.170;9.978;2024-03-17T13:42:44;11.60;1.00
15241;DHT22;7723;52.170;9.978;2024-03-17T13:45:15;11.60;1.00
15241;DHT22;7723;52.170;9.978;2024-03-17T13:47:46;11.70;1.00
15241;DHT22;7723;52.170;9.978;2024-03-17T13:50:14;11.70;1.00
15241;DHT22;7723;52.170;9.978;2024-03-17T13:52:42;11.70;1.00
15241;DHT22;7723;52.170;9.978;2024-03-17T13:55:14;11.60;1.00
15241;DHT22;7723;52.170;9.978;2024-03-17T13:57:43;11.50;1.00
15241;DHT22;7723;52.170;9.978;2024-03-17T14:00:14;11.50;1.00
15241;DHT22;7723;52.170;9.978;2024-03-17T14:02:45;11.50;1.00
15241;DHT22;7723;52.170;9.978;2024-03-17T14:05:15;11.60;5.50
15241;DHT22;7723;52.170;9.978;2024-03-17T14:07:43;11.50;1.00
15241;DHT22;7723;52.170;9.978;2024-03-17T14:10:15;11.50;1.00
15241;DHT22;7723;52.170;9.978;2024-03-17T14:12:43;11.60;1.00
15241;DHT22;7723;52.170;9.978;2024-03-17T14:15:11;11.70;1.00
15241;DHT22;7723;52.170;9.978;2024-03-17T14:17:38;11.70;1.00
15241;DHT22;7723;52.170;9.978;2024-03-17T14:20:07;11.80;1.00
15241;DHT22;7723;52.170;9.978;2024-03-17T14:22:35;11.60;1.00
15241;DHT22;7723;52.170;9.978;2024-03-17T14:25:04;11.40;1.00
15241;DHT22;7723;52.170;9.978;2024-03-17T14:27:32;11.50;1.00
15241;DHT22;7723;52.170;9.978;2024-03-17T14:30:00;11.60;1.00
15241;DHT22;7723;52.170;9.978;2024-03-17T14:32:27;11.40;1.00
15241;DHT22;7723;52.170;9.978;2024-03-17T14:34:54;11.40;1.00
15241;DHT22;7723;52.170;9.978;2024-03-17T14:37:21;11.40;1.00
15241;DHT22;7723;52.170;9.978;2024-03-17T14:39:50;11.20;1.00
15241;DHT22;7723;52.170;9.978;2024-03-17T14:42:18;11.00;1.00
15241;DHT22;7723;52.170;9.978;2024-03-17T14:44:47;11.00;1.00
15241;DHT22;7723;52.170;9.978;2024-03-17T14:47:14;11.10;1.00
15241;DHT22;7723;52.170;9.978;2024-03-17T14:49:42;11.10;1.00
15241;DHT22;7723;52.170;9.978;2024-03-17T14:52:11;11.10;1.00
15241;DHT22;7723;52.170;9.978;2024-03-17T14:54:38;11.00;1.00
15241;DHT22;7723;52.170;9.978;2024-03-17T14:57:05;11.00;1.00
15241;DHT22;7723;52.170;9.978;2024-03-17T14:59:32;11.00;1.00
15241;DHT22;7723;52.170;9.978;2024-03-17T15:02:01;10.90;1.00
15241;DHT22;7723;52.170;9.978;2024-03-17T15:04:28;11.00;12.00
15241;DHT22;7723;52.170;9.978;2024-03-17T15:06:56;11.00;1.00
15241;DHT22;7723;52.170;9.978;2024-03-17T15:09:23;11.00;5.50
15241;DHT22;7723;52.170;9.978;2024-03-17T15:11:50;11.00;15.30
15241;DHT22;7723;52.170;9.978;2024-03-17T15:14:17;11.10;37.50
15241;DHT22;7723;52.170;9.978;2024-03-17T15:16:45;11.10;1.00
15241;DHT22;7723;52.170;9.978;2024-03-17T15:19:13;11.10;1.00
15241;DHT22;7723;52.170;9.978;2024-03-17T15:21:40;11.20;1.00
15241;DHT22;7723;52.170;9.978;2024-03-17T15:24:07;11.00;1.00
15241;DHT22;7723;52.170;9.978;2024-03-17T15:26:34;11.00;12.90
15241;DHT22;7723;52.170;9.978;2024-03-17T15:29:01;11.10;29.50
15241;DHT22;7723;52.170;9.978;2024-03-17T15:31:29;11.00;1.00
15241;DHT22;7723;52.170;9.978;2024-03-17T15:33:56;10.90;36.70
15241;DHT22;7723;52.170;9.978;2024-03-17T15:36:25;10.90;93.90
15241;DHT22;7723;52.170;9.978;2024-03-17T15:38:52;10.80;98.00
15241;DHT22;7723;52.170;9.978;2024-03-17T15:41:19;10.90;99.90
15241;DHT22;7723;52.170;9.978;2024-03-17T15:43:47;10.80;99.90
15241;DHT22;7723;52.170;9.978;2024-03-17T15:46:15;10.80;99.90
15241;DHT22;7723;52.170;9.978;2024-03-17T15:48:44;10.60;99.90
15241;DHT22;7723;52.170;9.978;2024-03-17T15:51:11;10.50;99.90
15241;DHT22;7723;52.170;9.978;2024-03-17T15:53:39;10.50;99.90
15241;DHT22;7723;52.170;9.978;2024-03-17T15:56:06;10.50;99.90
15241;DHT22;7723;52.170;9.978;2024-03-17T15:58:34;10.40;99.90
15241;DHT22;7723;52.170;9.978;2024-03-17T16:01:05;10.40;99.90
15241;DHT22;7723;52.170;9.978;2024-03-17T16:03:36;10.30;99.90
15241;DHT22;7723;52.170;9.978;2024-03-17T16:06:06;10.30;99.90